メインページ
METAR-TAF:

METAR-TAF

空港 :

イルクーツク, ロシア

イルクーツク国際空港

緯度: 52-16N, 経度: 104-19E, 海抜: 513m

現時点の気象観測

当レポートは18分前の01:00(UTC)に作成
南/南東の風 6kt、南東からの間で変化する
気温 15°C
湿度 51%
気圧 1016 hPa
視程10km以上
1,500メートル以下は雲なし、積乱雲なし

METAR: UIII 230100Z 16003MPS 130V190 CAVOK 15/05 Q1016 R12/CLRD60 NOSIG RMK QFE719/0959

時間: 09:18 (01:18 UTC)

予報

当レポートは2時間18分前の23:00(UTC)に作成
予報は23日の 00時(UTC)から 23日の 24時(UTC)まで有効
南/南西の風 6kt
視程10km以上
高度2000ftの雲は散在している

TAF: UIII 222300Z 2300/2324 20003MPS 9999 SCT020

4,000以上の空港の気象観測と天気予報(METAR報とTAF報)

利用可能な観測所は地図上に黄色い丸と赤い丸で示す。

丸の上にカーソルを重ねると観測所名を参照できる。

次にクリックすると気象観測と天気予報を参照できる。

マップの切り替え:黒色「×」印の緑ボタンをクリックして拡大、「-」印の緑ボタンをクリックして縮小、緑色の三角印をクリックして隣りの地図に切り替え


METAR-TAF: